createdAt,value
2022-11-29T00:02:19.192Z,90.30
2022-11-29T00:04:46.053Z,90.40
2022-11-29T00:07:12.691Z,90.30
2022-11-29T00:09:39.266Z,90.30
2022-11-29T00:12:14.949Z,90.00
2022-11-29T00:14:41.993Z,89.90
2022-11-29T00:17:08.921Z,89.80
2022-11-29T00:19:36.539Z,90.30
2022-11-29T00:22:03.592Z,89.10
2022-11-29T00:24:32.338Z,89.60
2022-11-29T00:26:59.096Z,89.50
2022-11-29T00:29:25.636Z,89.70
2022-11-29T00:31:52.355Z,89.70
2022-11-29T00:34:18.965Z,89.30
2022-11-29T00:36:45.507Z,88.70
2022-11-29T00:39:12.530Z,89.00
2022-11-29T00:41:39.548Z,88.40
2022-11-29T00:44:06.158Z,87.90
2022-11-29T00:46:32.812Z,86.70
2022-11-29T00:48:59.403Z,87.20
2022-11-29T00:51:25.952Z,88.40
2022-11-29T00:53:52.471Z,88.70
2022-11-29T00:56:19.040Z,89.00
2022-11-29T00:58:45.590Z,88.70
2022-11-29T01:01:12.177Z,88.60
2022-11-29T01:03:38.888Z,89.00
2022-11-29T01:06:10.236Z,89.00
2022-11-29T01:08:36.795Z,88.60
2022-11-29T01:11:06.287Z,87.60
2022-11-29T01:13:33.420Z,87.20
2022-11-29T01:15:59.979Z,86.70
2022-11-29T01:18:26.666Z,86.20
2022-11-29T01:21:00.653Z,86.50
2022-11-29T01:23:27.306Z,86.70
2022-11-29T01:25:57.886Z,86.50
2022-11-29T01:28:24.688Z,86.70
2022-11-29T01:30:51.239Z,85.90
2022-11-29T01:33:17.931Z,85.90
2022-11-29T01:35:48.271Z,86.40
2022-11-29T01:38:14.832Z,86.70
2022-11-29T01:40:41.426Z,87.10
2022-11-29T01:43:17.567Z,86.80
2022-11-29T01:45:44.905Z,86.70
2022-11-29T01:48:13.402Z,86.70
2022-11-29T01:50:40.866Z,87.30
2022-11-29T01:53:07.581Z,88.00
2022-11-29T01:55:36.990Z,88.50
2022-11-29T01:58:04.374Z,88.40
2022-11-29T02:00:30.975Z,88.10
2022-11-29T02:03:01.408Z,88.20
2022-11-29T02:05:28.138Z,88.00
2022-11-29T02:07:56.428Z,87.70
2022-11-29T02:10:25.482Z,87.00
2022-11-29T02:13:09.227Z,86.80
2022-11-29T02:15:41.023Z,86.80
2022-11-29T02:18:14.580Z,86.80
2022-11-29T02:21:09.602Z,86.30
2022-11-29T02:23:39.471Z,86.40
2022-11-29T02:26:24.683Z,86.70
2022-11-29T02:29:06.351Z,86.70
2022-11-29T02:31:52.528Z,86.40
2022-11-29T02:34:24.974Z,86.80
2022-11-29T02:37:14.695Z,87.50
2022-11-29T02:40:04.360Z,87.20
2022-11-29T02:42:54.109Z,88.20
2022-11-29T02:45:22.880Z,87.70
2022-11-29T02:48:16.008Z,86.70
2022-11-29T02:50:46.555Z,86.00
2022-11-29T02:53:31.958Z,85.50
2022-11-29T02:56:07.974Z,85.60
2022-11-29T02:58:53.176Z,85.70
2022-11-29T03:01:39.980Z,85.70
2022-11-29T03:04:31.853Z,85.60
2022-11-29T03:07:15.769Z,85.70
2022-11-29T03:09:46.443Z,86.30
2022-11-29T03:12:28.017Z,86.70
2022-11-29T03:15:06.254Z,86.70
2022-11-29T03:17:56.160Z,87.30
2022-11-29T03:20:43.795Z,87.10
2022-11-29T03:23:30.610Z,86.50
2022-11-29T03:25:59.121Z,86.50
2022-11-29T03:28:29.377Z,86.70
2022-11-29T03:31:18.993Z,87.70
2022-11-29T03:33:56.209Z,88.10
2022-11-29T03:36:41.658Z,88.50
2022-11-29T03:39:13.189Z,88.80
2022-11-29T03:42:12.137Z,88.10
2022-11-29T03:44:49.408Z,88.70
2022-11-29T03:47:19.099Z,89.20
2022-11-29T03:49:51.971Z,88.90
2022-11-29T03:52:24.115Z,88.70
2022-11-29T03:55:03.206Z,89.50
2022-11-29T03:57:50.690Z,90.20
2022-11-29T04:00:17.827Z,90.30
2022-11-29T04:03:04.237Z,90.30
2022-11-29T04:05:30.772Z,90.30
2022-11-29T04:08:04.275Z,90.30
2022-11-29T04:10:49.056Z,90.30
2022-11-29T04:13:15.756Z,90.30
2022-11-29T04:15:55.425Z,91.00
2022-11-29T04:18:35.383Z,91.40
2022-11-29T04:21:20.746Z,91.50
2022-11-29T04:24:11.214Z,91.70
2022-11-29T04:26:50.013Z,91.90
2022-11-29T04:29:35.472Z,91.80
2022-11-29T04:32:02.609Z,92.10
2022-11-29T04:34:48.027Z,91.80
2022-11-29T04:37:21.124Z,91.70
2022-11-29T04:39:57.349Z,91.90
2022-11-29T04:42:28.650Z,91.70
2022-11-29T04:45:23.117Z,92.00
2022-11-29T04:47:54.168Z,92.10
2022-11-29T04:50:37.223Z,92.10
2022-11-29T04:53:24.422Z,92.30
2022-11-29T04:56:01.270Z,92.40
2022-11-29T04:58:37.974Z,92.10
2022-11-29T05:01:23.131Z,92.10
2022-11-29T05:03:57.239Z,92.10
2022-11-29T05:06:29.223Z,92.10
2022-11-29T05:08:58.473Z,92.20
2022-11-29T05:11:29.640Z,92.40
2022-11-29T05:13:58.463Z,92.10
2022-11-29T05:16:45.318Z,92.60
2022-11-29T05:19:11.834Z,92.30
2022-11-29T05:21:57.021Z,92.70
2022-11-29T05:24:35.132Z,92.20
2022-11-29T05:27:08.076Z,92.40
2022-11-29T05:29:41.718Z,92.70
2022-11-29T05:32:21.194Z,92.90
2022-11-29T05:34:59.884Z,92.90
2022-11-29T05:37:29.584Z,92.90
2022-11-29T05:39:56.104Z,92.50
2022-11-29T05:42:25.731Z,92.70
2022-11-29T05:44:59.527Z,92.70
2022-11-29T05:47:32.288Z,92.20
2022-11-29T05:50:17.819Z,92.40
2022-11-29T05:53:03.309Z,92.20
2022-11-29T05:55:53.291Z,92.50
2022-11-29T05:58:28.610Z,92.70
2022-11-29T06:01:00.927Z,92.60
2022-11-29T06:03:35.395Z,92.20
2022-11-29T06:06:08.194Z,92.20
2022-11-29T06:08:52.105Z,92.30
2022-11-29T06:11:25.444Z,92.20
2022-11-29T06:13:52.060Z,92.20
2022-11-29T06:16:18.644Z,92.30
2022-11-29T06:19:03.865Z,92.60
2022-11-29T06:21:38.417Z,92.50
2022-11-29T06:24:11.056Z,92.60
2022-11-29T06:26:44.818Z,92.20
2022-11-29T06:29:14.353Z,92.20
2022-11-29T06:31:44.388Z,92.20
2022-11-29T06:34:31.612Z,92.20
2022-11-29T06:37:05.441Z,92.30
2022-11-29T06:39:32.153Z,92.40
2022-11-29T06:41:58.706Z,92.20
2022-11-29T06:44:25.324Z,92.20
2022-11-29T06:46:56.448Z,92.00
2022-11-29T06:49:28.938Z,92.10
2022-11-29T06:52:04.490Z,92.20
2022-11-29T06:54:37.220Z,92.20
2022-11-29T06:57:22.512Z,92.20
2022-11-29T07:00:01.325Z,92.20
2022-11-29T07:02:33.959Z,92.30
2022-11-29T07:05:13.888Z,92.20
2022-11-29T07:07:41.119Z,92.20
2022-11-29T07:10:15.013Z,91.90
2022-11-29T07:12:41.887Z,91.90
2022-11-29T07:15:12.496Z,92.00
2022-11-29T07:17:43.789Z,92.00
2022-11-29T07:20:25.429Z,91.50
2022-11-29T07:23:05.536Z,91.60
2022-11-29T07:25:39.932Z,91.80
2022-11-29T07:28:25.673Z,91.60
2022-11-29T07:30:56.365Z,91.70
2022-11-29T07:33:31.839Z,91.80
2022-11-29T07:36:17.336Z,91.80
2022-11-29T07:38:59.146Z,91.80
2022-11-29T07:41:44.073Z,92.10
2022-11-29T07:44:13.773Z,92.10
2022-11-29T07:46:40.500Z,92.10
2022-11-29T07:49:09.962Z,91.60
2022-11-29T07:51:36.588Z,91.60
2022-11-29T07:54:03.237Z,91.70
2022-11-29T07:56:29.854Z,91.60
2022-11-29T07:58:56.508Z,91.70
2022-11-29T08:01:23.155Z,91.90
2022-11-29T08:03:49.754Z,91.90
2022-11-29T08:06:16.313Z,91.90
2022-11-29T08:08:44.355Z,91.80
2022-11-29T08:11:11.828Z,91.60
2022-11-29T08:13:38.372Z,90.90
2022-11-29T08:16:05.110Z,91.50
2022-11-29T08:18:31.669Z,91.50
2022-11-29T08:20:58.219Z,91.70
2022-11-29T08:23:24.731Z,91.90
2022-11-29T08:25:51.360Z,91.70
2022-11-29T08:28:17.904Z,91.30
2022-11-29T08:30:44.403Z,90.70
2022-11-29T08:33:10.936Z,91.00
2022-11-29T08:35:37.461Z,91.20
2022-11-29T08:38:04.874Z,91.20
2022-11-29T08:40:31.407Z,91.50
2022-11-29T08:42:58.373Z,91.70
2022-11-29T08:45:25.118Z,91.50
2022-11-29T08:47:51.796Z,90.90
2022-11-29T08:50:18.433Z,91.00
2022-11-29T08:53:05.359Z,91.40
2022-11-29T08:55:33.445Z,91.20
2022-11-29T08:58:01.448Z,91.00
2022-11-29T09:00:28.023Z,90.70
2022-11-29T09:02:54.577Z,90.70
2022-11-29T09:05:21.121Z,91.30
2022-11-29T09:07:47.754Z,91.60
2022-11-29T09:10:14.357Z,90.90
2022-11-29T09:12:41.179Z,90.70
2022-11-29T09:15:11.104Z,90.70
2022-11-29T09:17:37.648Z,90.00
2022-11-29T09:20:05.237Z,90.70
2022-11-29T09:22:31.764Z,90.70
2022-11-29T09:24:58.318Z,90.70
2022-11-29T09:27:24.878Z,90.30
2022-11-29T09:29:51.443Z,90.30
2022-11-29T09:32:17.955Z,90.60
2022-11-29T09:34:44.918Z,90.00
2022-11-29T09:37:11.706Z,90.10
2022-11-29T09:39:40.107Z,90.10
2022-11-29T09:42:09.751Z,89.30
2022-11-29T09:44:51.470Z,87.20
2022-11-29T09:47:27.834Z,87.00
2022-11-29T09:50:03.708Z,88.00
2022-11-29T09:52:48.312Z,88.00
2022-11-29T09:55:14.814Z,85.70
2022-11-29T09:57:43.859Z,86.00
2022-11-29T10:00:18.025Z,87.00
2022-11-29T10:02:47.697Z,87.00
2022-11-29T10:05:32.544Z,86.50
2022-11-29T10:08:06.497Z,84.20
2022-11-29T10:10:40.693Z,82.20
2022-11-29T10:13:15.685Z,83.50
2022-11-29T10:15:44.265Z,84.20
2022-11-29T10:18:13.709Z,82.80
2022-11-29T10:20:47.457Z,84.00
2022-11-29T10:23:23.915Z,83.50
2022-11-29T10:25:51.895Z,84.10
2022-11-29T10:28:20.760Z,84.10
2022-11-29T10:30:48.070Z,84.10
2022-11-29T10:33:21.050Z,84.10
2022-11-29T10:35:49.102Z,85.00
2022-11-29T10:38:30.843Z,84.60
2022-11-29T10:41:01.472Z,84.20
2022-11-29T10:43:28.069Z,84.20
2022-11-29T10:45:56.174Z,84.20
2022-11-29T10:48:24.840Z,84.70
2022-11-29T10:50:52.099Z,85.10
2022-11-29T10:53:20.539Z,86.00
2022-11-29T10:55:49.816Z,84.40
2022-11-29T10:58:23.252Z,84.40
2022-11-29T11:00:57.239Z,84.30
2022-11-29T11:03:29.755Z,84.10
2022-11-29T11:06:16.591Z,84.40
2022-11-29T11:08:44.785Z,84.40
2022-11-29T11:11:11.891Z,81.90
2022-11-29T11:13:40.750Z,82.00
2022-11-29T11:16:20.357Z,81.10
2022-11-29T11:18:47.762Z,80.40
2022-11-29T11:21:15.748Z,80.40
2022-11-29T11:23:45.336Z,80.60
2022-11-29T11:26:12.896Z,80.90
2022-11-29T11:28:45.254Z,82.10
2022-11-29T11:31:12.516Z,82.00
2022-11-29T11:33:43.281Z,82.00
2022-11-29T11:36:14.294Z,82.50
2022-11-29T11:38:53.128Z,82.00
2022-11-29T11:41:44.625Z,82.20
2022-11-29T11:47:18.691Z,81.80
2022-11-29T11:49:55.773Z,82.20
2022-11-29T11:52:23.731Z,80.50
2022-11-29T11:54:52.998Z,80.70
2022-11-29T11:57:20.571Z,80.10
2022-11-29T11:59:48.276Z,79.60
2022-11-29T12:02:36.728Z,78.40
2022-11-29T12:05:06.169Z,79.30
2022-11-29T12:08:05.997Z,78.30
2022-11-29T12:10:26.791Z,79.40
2022-11-29T12:12:54.118Z,80.20
2022-11-29T12:15:23.872Z,80.60
2022-11-29T12:17:50.566Z,78.90
2022-11-29T12:20:20.300Z,79.60
2022-11-29T12:23:07.156Z,77.60
2022-11-29T12:25:44.188Z,78.80
2022-11-29T12:28:15.804Z,78.30
2022-11-29T12:31:05.503Z,77.40
2022-11-29T12:33:40.538Z,77.70
2022-11-29T12:36:18.466Z,77.00
2022-11-29T12:39:00.536Z,76.50
2022-11-29T12:41:32.708Z,76.60
2022-11-29T12:44:05.327Z,76.50
2022-11-29T12:46:32.478Z,77.00
2022-11-29T12:49:04.292Z,99.40
2022-11-29T12:51:30.805Z,90.60
2022-11-29T12:54:00.208Z,71.30
2022-11-29T12:56:45.571Z,29.20
2022-11-29T12:59:18.297Z,27.90
2022-11-29T13:02:00.268Z,9.70
2022-11-29T13:04:29.599Z,17.50
2022-11-29T13:07:02.013Z,27.10
2022-11-29T13:09:47.426Z,36.60
2022-11-29T13:12:23.367Z,47.30
2022-11-29T13:14:54.865Z,54.00
2022-11-29T13:17:32.457Z,60.00
2022-11-29T13:20:21.944Z,62.80
2022-11-29T13:22:48.446Z,68.40
2022-11-29T13:25:18.257Z,69.90
2022-11-29T13:27:50.135Z,72.10
2022-11-29T13:30:17.297Z,73.10
2022-11-29T13:32:55.987Z,75.20
2022-11-29T13:35:41.314Z,76.20
2022-11-29T13:38:13.232Z,76.60
2022-11-29T13:40:57.412Z,76.60
2022-11-29T13:43:30.767Z,78.90
2022-11-29T13:46:01.299Z,77.60
2022-11-29T13:48:28.299Z,78.50
2022-11-29T13:50:55.720Z,78.00
2022-11-29T13:53:24.123Z,79.70
2022-11-29T13:56:00.479Z,81.80
2022-11-29T13:58:34.565Z,83.00
2022-11-29T14:01:02.760Z,82.50
2022-11-29T14:03:31.682Z,84.10
2022-11-29T14:06:04.284Z,84.60
2022-11-29T14:08:55.200Z,83.00
2022-11-29T14:11:22.837Z,82.60
2022-11-29T14:13:49.460Z,81.70
2022-11-29T14:16:28.050Z,82.60
2022-11-29T14:19:10.033Z,83.70
2022-11-29T14:21:55.489Z,84.50
2022-11-29T14:24:42.349Z,84.50
2022-11-29T14:27:09.925Z,85.80
2022-11-29T14:29:48.771Z,86.50
2022-11-29T14:32:21.188Z,87.00
2022-11-29T14:34:51.806Z,88.00
2022-11-29T14:37:23.243Z,87.60
2022-11-29T14:39:52.702Z,88.50
2022-11-29T14:42:21.246Z,89.70
2022-11-29T14:44:52.747Z,90.00
2022-11-29T14:47:19.312Z,90.10
2022-11-29T14:49:46.265Z,90.20
2022-11-29T14:52:12.763Z,90.20
2022-11-29T14:54:59.879Z,90.20
2022-11-29T14:57:44.993Z,91.00
2022-11-29T15:00:12.540Z,91.10
2022-11-29T15:02:59.346Z,91.10
2022-11-29T15:05:35.058Z,91.30
2022-11-29T15:08:14.039Z,90.50
2022-11-29T15:10:42.214Z,91.00
2022-11-29T15:13:11.262Z,91.00
2022-11-29T15:15:37.917Z,91.10
2022-11-29T15:18:13.917Z,91.00
2022-11-29T15:20:50.669Z,91.10
2022-11-29T15:23:18.699Z,91.00
2022-11-29T15:25:52.843Z,91.30
2022-11-29T15:28:27.082Z,91.50
2022-11-29T15:31:20.002Z,91.90
2022-11-29T15:33:47.708Z,92.10
2022-11-29T15:36:18.916Z,92.70
2022-11-29T15:38:53.408Z,92.70
2022-11-29T15:41:21.726Z,93.00
2022-11-29T15:43:53.249Z,92.70
2022-11-29T15:46:27.046Z,92.20
2022-11-29T15:48:53.942Z,92.00
2022-11-29T15:51:30.108Z,92.20
2022-11-29T15:54:11.661Z,92.10
2022-11-29T15:56:47.555Z,91.90
2022-11-29T15:59:20.092Z,92.20
2022-11-29T16:01:50.010Z,92.40
2022-11-29T16:04:20.101Z,92.40
2022-11-29T16:06:47.447Z,91.90
2022-11-29T16:09:16.490Z,91.70
2022-11-29T16:11:43.390Z,92.00
2022-11-29T16:14:24.861Z,92.10
2022-11-29T16:16:52.853Z,92.00
2022-11-29T16:19:25.746Z,91.90
2022-11-29T16:22:01.282Z,92.00
2022-11-29T16:24:27.870Z,91.80
2022-11-29T16:26:54.834Z,91.40
2022-11-29T16:29:29.480Z,90.90
2022-11-29T16:31:56.291Z,91.30
2022-11-29T16:34:31.207Z,91.60
2022-11-29T16:37:01.008Z,91.80
2022-11-29T16:39:28.218Z,91.50
2022-11-29T16:42:13.565Z,91.30
2022-11-29T16:44:40.046Z,91.60
2022-11-29T16:47:17.498Z,91.60
2022-11-29T16:49:44.617Z,92.10
2022-11-29T16:52:27.986Z,92.00
2022-11-29T16:54:54.589Z,92.20
2022-11-29T16:57:21.254Z,92.40
2022-11-29T16:59:47.906Z,92.10
2022-11-29T17:02:15.066Z,92.30
2022-11-29T17:04:41.742Z,92.50
2022-11-29T17:07:11.887Z,92.20
2022-11-29T17:09:38.702Z,92.50
2022-11-29T17:12:05.427Z,91.80
2022-11-29T17:14:32.830Z,91.30
2022-11-29T17:17:00.745Z,91.80
2022-11-29T17:19:28.994Z,91.30
2022-11-29T17:21:55.634Z,91.60
2022-11-29T17:24:22.747Z,91.80
2022-11-29T17:26:49.291Z,91.50
2022-11-29T17:29:16.535Z,91.70
2022-11-29T17:31:43.979Z,92.30
2022-11-29T17:34:10.869Z,92.10
2022-11-29T17:36:37.910Z,92.10
2022-11-29T17:39:04.627Z,92.00
2022-11-29T17:41:32.508Z,92.00
2022-11-29T17:43:59.566Z,92.50
2022-11-29T17:46:27.820Z,92.50
2022-11-29T17:48:55.105Z,92.60
2022-11-29T17:51:50.687Z,92.80
2022-11-29T17:54:10.030Z,92.60
2022-11-29T17:56:36.830Z,92.60
2022-11-29T17:59:04.011Z,93.10
2022-11-29T18:01:32.017Z,93.20
2022-11-29T18:04:00.316Z,93.30
2022-11-29T18:06:27.857Z,93.70
2022-11-29T18:08:56.056Z,94.30
2022-11-29T18:11:30.011Z,94.30
2022-11-29T18:13:57.663Z,94.30
2022-11-29T18:16:28.603Z,94.30
2022-11-29T18:18:56.431Z,94.30
2022-11-29T18:21:23.143Z,94.20
2022-11-29T18:23:49.758Z,94.20
2022-11-29T18:26:17.450Z,94.20
2022-11-29T18:28:44.434Z,94.30
2022-11-29T18:31:12.407Z,94.50
2022-11-29T18:33:39.814Z,94.20
2022-11-29T18:36:09.868Z,94.20
2022-11-29T18:38:37.073Z,94.20
2022-11-29T18:41:07.790Z,94.30
2022-11-29T18:43:34.357Z,93.90
2022-11-29T18:46:11.705Z,94.00
2022-11-29T18:48:38.905Z,93.80
2022-11-29T18:51:06.281Z,93.60
2022-11-29T18:53:36.474Z,93.50
2022-11-29T18:56:09.919Z,93.60
2022-11-29T18:58:36.783Z,93.50
2022-11-29T19:01:07.518Z,93.40
2022-11-29T19:03:38.245Z,93.30
2022-11-29T19:06:05.640Z,93.10
2022-11-29T19:08:32.371Z,93.10
2022-11-29T19:10:59.266Z,93.20
2022-11-29T19:13:25.815Z,92.80
2022-11-29T19:15:53.477Z,92.80
2022-11-29T19:18:20.620Z,92.90
2022-11-29T19:20:47.277Z,92.50
2022-11-29T19:23:14.126Z,92.40
2022-11-29T19:25:40.813Z,92.50
2022-11-29T19:28:13.744Z,92.70
2022-11-29T19:30:40.787Z,93.00
2022-11-29T19:33:07.430Z,93.40
2022-11-29T19:35:34.564Z,93.40
2022-11-29T19:38:01.127Z,93.60
2022-11-29T19:40:27.757Z,93.60
2022-11-29T19:42:54.266Z,93.90
2022-11-29T19:45:21.832Z,93.80
2022-11-29T19:47:48.442Z,93.60
2022-11-29T19:50:15.033Z,93.70
2022-11-29T19:52:41.549Z,93.90
2022-11-29T19:55:08.353Z,93.80
2022-11-29T19:57:34.922Z,94.00
2022-11-29T20:00:01.832Z,93.90
2022-11-29T20:02:28.400Z,93.60
2022-11-29T20:04:54.983Z,93.50
2022-11-29T20:07:21.620Z,93.40
2022-11-29T20:09:48.491Z,93.60
2022-11-29T20:12:15.384Z,93.70
2022-11-29T20:14:42.136Z,93.10
2022-11-29T20:17:08.728Z,93.10
2022-11-29T20:19:35.305Z,93.20
2022-11-29T20:22:01.863Z,93.10
2022-11-29T20:24:29.744Z,93.30
2022-11-29T20:26:58.756Z,93.10
2022-11-29T20:29:30.709Z,93.40
2022-11-29T20:31:57.243Z,93.70
2022-11-29T20:34:23.901Z,93.40
2022-11-29T20:36:53.260Z,93.40
2022-11-29T20:39:32.092Z,93.30
2022-11-29T20:42:18.532Z,93.20
2022-11-29T20:44:53.637Z,92.90
2022-11-29T20:47:21.230Z,92.80
2022-11-29T20:49:48.559Z,92.70
2022-11-29T20:52:27.220Z,93.10
2022-11-29T20:54:53.739Z,92.90
2022-11-29T20:57:20.522Z,92.70
2022-11-29T20:59:47.326Z,92.90
2022-11-29T21:02:14.110Z,92.70
2022-11-29T21:04:40.660Z,92.70
2022-11-29T21:07:07.220Z,92.60
2022-11-29T21:09:33.871Z,92.50
2022-11-29T21:12:00.527Z,92.40
2022-11-29T21:14:27.101Z,92.60
2022-11-29T21:16:53.848Z,92.50
2022-11-29T21:19:22.472Z,92.40
2022-11-29T21:22:03.208Z,92.70
2022-11-29T21:24:37.227Z,92.80
2022-11-29T21:27:04.340Z,92.70
2022-11-29T21:29:31.009Z,93.00
2022-11-29T21:31:57.724Z,93.10
2022-11-29T21:34:24.274Z,93.20
2022-11-29T21:36:58.743Z,93.20
2022-11-29T21:39:29.758Z,93.40
2022-11-29T21:41:56.345Z,93.40
2022-11-29T21:44:22.862Z,93.50
2022-11-29T21:46:49.468Z,93.20
2022-11-29T21:49:16.016Z,93.20
2022-11-29T21:51:42.725Z,93.30
2022-11-29T21:54:09.257Z,93.60
2022-11-29T21:56:35.893Z,93.40
2022-11-29T21:59:02.421Z,93.60
2022-11-29T22:01:29.473Z,93.20
2022-11-29T22:03:56.323Z,93.10
2022-11-29T22:06:24.258Z,92.70
2022-11-29T22:08:50.899Z,92.60
2022-11-29T22:11:30.880Z,93.00
2022-11-29T22:14:13.587Z,92.70
2022-11-29T22:16:49.339Z,92.90
2022-11-29T22:19:17.443Z,93.00
2022-11-29T22:21:45.041Z,92.90
2022-11-29T22:24:12.755Z,92.90
2022-11-29T22:26:39.367Z,93.20
2022-11-29T22:29:06.241Z,93.10
2022-11-29T22:31:33.069Z,93.10
2022-11-29T22:33:59.641Z,93.50
2022-11-29T22:36:26.195Z,93.70
2022-11-29T22:38:52.795Z,94.10
2022-11-29T22:41:19.525Z,94.30
2022-11-29T22:43:46.082Z,94.10
2022-11-29T22:46:14.254Z,94.10
2022-11-29T22:48:41.487Z,94.10
2022-11-29T22:51:15.311Z,93.70
2022-11-29T22:53:43.050Z,93.60
2022-11-29T22:56:10.283Z,93.30
2022-11-29T22:58:37.257Z,93.00
2022-11-29T23:01:08.469Z,92.40
2022-11-29T23:03:35.811Z,92.40
2022-11-29T23:06:03.524Z,92.40
2022-11-29T23:08:30.189Z,92.30
2022-11-29T23:10:57.506Z,92.20
2022-11-29T23:13:24.101Z,92.00
2022-11-29T23:15:51.775Z,92.10
2022-11-29T23:18:19.193Z,92.20
2022-11-29T23:20:45.762Z,92.40
2022-11-29T23:23:12.369Z,92.40
2022-11-29T23:25:46.295Z,92.30
2022-11-29T23:28:12.864Z,92.40
2022-11-29T23:30:39.368Z,92.30
2022-11-29T23:33:05.875Z,92.40
2022-11-29T23:35:32.410Z,92.20
2022-11-29T23:37:58.915Z,92.20
2022-11-29T23:40:25.443Z,92.00
2022-11-29T23:42:52.393Z,92.30
2022-11-29T23:45:19.134Z,92.20
2022-11-29T23:47:45.725Z,92.20
2022-11-29T23:50:12.375Z,92.20
2022-11-29T23:52:38.954Z,92.20
2022-11-29T23:55:05.664Z,91.90
2022-11-29T23:57:32.230Z,91.50
2022-11-29T23:59:58.836Z,91.50
